createdAt,value
2019-04-26T18:32:20.189Z,12.56
2019-04-26T18:34:53.670Z,12.32
2019-04-26T18:37:24.797Z,12.25
2019-04-26T18:39:57.509Z,12.09
2019-04-26T18:42:27.996Z,12.09
2019-04-26T18:44:59.080Z,11.99
2019-04-26T18:47:33.984Z,11.88
2019-04-26T18:50:04.036Z,11.71
2019-04-26T18:52:37.370Z,11.69
2019-04-26T18:55:29.008Z,11.62
2019-04-26T18:58:01.733Z,11.47
2019-04-26T19:00:36.414Z,11.39
2019-04-26T19:03:06.719Z,11.33
2019-04-26T19:05:37.223Z,11.25
2019-04-26T19:08:09.843Z,11.09
2019-04-26T19:10:40.011Z,10.90
2019-04-26T19:13:30.910Z,10.76
2019-04-26T19:16:19.463Z,10.78
2019-04-26T19:18:57.008Z,10.79
2019-04-26T19:21:37.820Z,10.70
2019-04-26T19:24:07.293Z,10.63
2019-04-26T19:26:44.184Z,10.75
2019-04-26T19:29:22.457Z,10.74
2019-04-26T19:32:05.807Z,10.73
2019-04-26T19:35:00.687Z,10.76
2019-04-26T19:37:36.753Z,10.73
2019-04-26T19:40:02.950Z,10.72
2019-04-26T19:42:34.127Z,10.67
2019-04-26T19:45:16.775Z,10.68
2019-04-26T19:47:52.027Z,10.68
2019-04-26T19:50:52.585Z,10.78
2019-04-26T19:53:47.299Z,10.78
2019-04-26T19:56:27.527Z,10.81
2019-04-26T19:59:00.139Z,10.82
2019-04-26T20:01:58.225Z,10.82
2019-04-26T20:04:33.914Z,10.96
2019-04-26T20:07:05.400Z,11.10
2019-04-26T20:09:35.998Z,11.10
2019-04-26T20:12:05.759Z,11.10
2019-04-26T20:14:47.251Z,11.21
2019-04-26T20:17:14.811Z,11.19
2019-04-26T20:19:42.626Z,11.20
2019-04-26T20:22:14.576Z,11.09
2019-04-26T20:24:48.723Z,10.92
2019-04-26T20:27:25.227Z,10.82
2019-04-26T20:29:54.929Z,10.58
2019-04-26T20:32:31.941Z,10.59
2019-04-26T20:35:19.703Z,10.50
2019-04-26T20:37:52.075Z,10.35
2019-04-26T20:40:25.684Z,10.38
2019-04-26T20:43:02.066Z,10.42
2019-04-26T20:45:39.819Z,10.23
2019-04-26T20:48:05.408Z,10.19
2019-04-26T20:50:41.408Z,10.15
2019-04-26T20:53:13.526Z,10.16
2019-04-26T20:55:47.145Z,10.17
2019-04-26T20:58:22.861Z,10.06
2019-04-26T21:00:54.824Z,10.00
2019-04-26T21:03:28.179Z,10.08
2019-04-26T21:06:01.428Z,10.17
2019-04-26T21:08:31.682Z,10.17
2019-04-26T21:11:04.740Z,10.18
2019-04-26T21:13:35.940Z,10.21
2019-04-26T21:16:10.555Z,10.21
2019-04-26T21:18:44.006Z,10.26
2019-04-26T21:21:12.130Z,10.32
2019-04-26T21:23:48.721Z,10.23
2019-04-26T21:26:40.177Z,10.11
2019-04-26T21:29:30.215Z,10.11
2019-04-26T21:32:20.378Z,10.20
2019-04-26T21:34:53.912Z,10.12
2019-04-26T21:37:34.447Z,10.06
2019-04-26T21:40:26.744Z,9.93
2019-04-26T21:43:03.131Z,9.85
2019-04-26T21:45:33.936Z,9.76
2019-04-26T21:48:06.700Z,9.72
2019-04-26T21:50:38.946Z,9.69
2019-04-26T21:53:10.786Z,9.63
2019-04-26T21:55:43.383Z,9.58
2019-04-26T21:58:16.486Z,9.61
2019-04-26T22:01:11.084Z,9.65
2019-04-26T22:03:47.450Z,9.72
2019-04-26T22:06:14.889Z,9.75
2019-04-26T22:08:55.686Z,9.71
2019-04-26T22:11:26.433Z,9.75
2019-04-26T22:14:13.198Z,9.75
2019-04-26T22:17:24.279Z,9.74
2019-04-26T22:20:12.463Z,9.80
2019-04-26T22:22:55.028Z,9.78
2019-04-26T22:25:26.702Z,9.85
2019-04-26T22:28:00.458Z,9.89
2019-04-26T22:30:33.040Z,9.86
2019-04-26T22:33:09.766Z,9.93
2019-04-26T22:35:40.102Z,9.93
2019-04-26T22:38:17.479Z,9.89
2019-04-26T22:40:48.664Z,9.99
2019-04-26T22:43:54.055Z,10.02
2019-04-26T22:46:44.384Z,10.04
2019-04-26T22:49:05.944Z,9.98
2019-04-26T22:51:37.286Z,10.03
2019-04-26T22:54:11.198Z,10.05
2019-04-26T22:56:41.274Z,10.09
2019-04-26T22:59:13.801Z,10.08
2019-04-26T23:01:48.716Z,10.03
2019-04-26T23:04:23.577Z,9.99
2019-04-26T23:06:50.350Z,10.02
2019-04-26T23:09:23.987Z,10.04
2019-04-26T23:12:07.354Z,9.95
2019-04-26T23:14:56.237Z,9.91
2019-04-26T23:17:51.320Z,9.98
2019-04-26T23:20:29.226Z,9.94
2019-04-26T23:23:00.567Z,9.87
2019-04-26T23:25:32.915Z,9.89
2019-04-26T23:28:03.656Z,9.92
2019-04-26T23:30:35.072Z,9.96
2019-04-26T23:33:06.134Z,9.94
2019-04-26T23:35:43.290Z,9.88
2019-04-26T23:38:07.768Z,9.92
2019-04-26T23:40:37.934Z,9.97
2019-04-26T23:43:09.276Z,9.93
2019-04-26T23:45:41.991Z,9.90
2019-04-26T23:48:12.151Z,9.87
2019-04-26T23:50:43.029Z,9.92
2019-04-26T23:53:13.871Z,9.85
2019-04-26T23:55:45.346Z,9.84
2019-04-26T23:58:15.058Z,9.85
